createdAt,value
2023-02-12T00:00:17.484Z,1028
2023-02-12T00:02:17.505Z,1028.1
2023-02-12T00:04:17.421Z,1028.1
2023-02-12T00:06:17.409Z,1028
2023-02-12T00:08:17.448Z,1027.9
2023-02-12T00:10:17.461Z,1027.9
2023-02-12T00:12:17.450Z,1027.9
2023-02-12T00:14:17.393Z,1027.8
2023-02-12T00:16:17.524Z,1027.7
2023-02-12T00:18:17.420Z,1027.7
2023-02-12T00:20:17.427Z,1027.6
2023-02-12T00:22:17.455Z,1027.6
2023-02-12T00:24:17.421Z,1027.5
2023-02-12T00:26:17.390Z,1027.5
2023-02-12T00:28:17.638Z,1027.6
2023-02-12T00:30:17.416Z,1027.7
2023-02-12T00:32:17.393Z,1027.5
2023-02-12T00:34:17.396Z,1027.5
2023-02-12T00:36:17.378Z,1027.5
2023-02-12T00:38:17.432Z,1027.5
2023-02-12T00:40:17.358Z,1027.5
2023-02-12T00:42:17.399Z,1027.4
2023-02-12T00:44:17.401Z,1027.5
2023-02-12T00:46:17.404Z,1027.5
2023-02-12T00:48:17.368Z,1027.5
2023-02-12T00:50:17.373Z,1027.6
2023-02-12T00:52:17.441Z,1027.6
2023-02-12T00:54:17.417Z,1027.7
2023-02-12T00:56:17.376Z,1027.6
2023-02-12T00:58:18.956Z,1027.6
2023-02-12T01:00:17.970Z,1027.6
2023-02-12T01:02:17.364Z,1027.6
2023-02-12T01:04:17.360Z,1027.6
2023-02-12T01:06:17.361Z,1027.6
2023-02-12T01:08:17.376Z,1027.6
2023-02-12T01:10:17.378Z,1027.6
2023-02-12T01:12:17.323Z,1027.7
2023-02-12T01:14:17.353Z,1027.7
2023-02-12T01:16:17.418Z,1027.6
2023-02-12T01:18:17.331Z,1027.6
2023-02-12T01:20:17.399Z,1027.5
2023-02-12T01:22:17.380Z,1027.5
2023-02-12T01:24:17.418Z,1027.4
2023-02-12T01:26:17.325Z,1027.5
2023-02-12T01:28:17.410Z,1027.6
2023-02-12T01:30:17.665Z,1027.6
2023-02-12T01:32:17.433Z,1027.5
2023-02-12T01:34:17.292Z,1027.5
2023-02-12T01:36:17.333Z,1027.5
2023-02-12T01:38:17.308Z,1027.5
2023-02-12T01:40:17.318Z,1027.5
2023-02-12T01:42:17.296Z,1027.4
2023-02-12T01:44:17.328Z,1027.5
2023-02-12T01:46:17.355Z,1027.5
2023-02-12T01:48:17.355Z,1027.5
2023-02-12T01:50:17.320Z,1027.4
2023-02-12T01:52:17.323Z,1027.4
2023-02-12T01:54:17.311Z,1027.4
2023-02-12T01:56:17.288Z,1027.3
2023-02-12T01:58:17.323Z,1027.4
2023-02-12T02:00:17.284Z,1027.4
2023-02-12T02:02:17.294Z,1027.4
2023-02-12T02:04:17.289Z,1027.5
2023-02-12T02:06:17.293Z,1027.6
2023-02-12T02:08:17.294Z,1027.6
2023-02-12T02:10:17.319Z,1027.6
2023-02-12T02:12:17.274Z,1027.7
2023-02-12T02:14:17.263Z,1027.8
2023-02-12T02:16:17.287Z,1027.7
2023-02-12T02:18:17.262Z,1027.7
2023-02-12T02:20:17.259Z,1027.7
2023-02-12T02:22:17.335Z,1027.7
2023-02-12T02:24:17.361Z,1027.6
2023-02-12T02:26:17.257Z,1027.6
2023-02-12T02:28:17.280Z,1027.6
2023-02-12T02:30:17.385Z,1027.6
2023-02-12T02:32:17.292Z,1027.5
2023-02-12T02:34:17.268Z,1027.5
2023-02-12T02:36:17.234Z,1027.5
2023-02-12T02:38:17.253Z,1027.4
2023-02-12T02:40:17.237Z,1027.4
2023-02-12T02:42:17.219Z,1027.5
2023-02-12T02:44:17.208Z,1027.5
2023-02-12T02:46:17.290Z,1027.5
2023-02-12T02:48:17.239Z,1027.5
2023-02-12T02:50:17.257Z,1027.4
2023-02-12T02:52:17.232Z,1027.4
2023-02-12T02:54:17.214Z,1027.4
2023-02-12T02:56:17.322Z,1027.4
2023-02-12T02:58:17.197Z,1027.3
2023-02-12T03:00:17.198Z,1027.2
2023-02-12T03:02:17.265Z,1027.2
2023-02-12T03:04:17.215Z,1027.2
2023-02-12T03:06:17.219Z,1027
2023-02-12T03:08:17.193Z,1027
2023-02-12T03:10:17.225Z,1027
2023-02-12T03:12:17.174Z,1026.9
2023-02-12T03:14:17.180Z,1026.9
2023-02-12T03:16:17.265Z,1026.9
2023-02-12T03:18:17.222Z,1026.8
2023-02-12T03:20:17.210Z,1026.8
2023-02-12T03:22:17.204Z,1026.7
2023-02-12T03:24:17.168Z,1026.7
2023-02-12T03:26:17.181Z,1026.7
2023-02-12T03:28:17.237Z,1026.7
2023-02-12T03:30:17.192Z,1026.7
2023-02-12T03:32:17.174Z,1026.6
2023-02-12T03:34:17.190Z,1026.5
2023-02-12T03:36:17.190Z,1026.4
2023-02-12T03:38:17.310Z,1026.5
2023-02-12T03:40:17.221Z,1026.5
2023-02-12T03:42:17.176Z,1026.5
2023-02-12T03:44:17.184Z,1026.5
2023-02-12T03:46:17.238Z,1026.4
2023-02-12T03:48:17.171Z,1026.4
2023-02-12T03:50:17.158Z,1026.4
2023-02-12T03:52:17.153Z,1026.3
2023-02-12T03:54:17.141Z,1026.3
2023-02-12T03:56:17.154Z,1026.2
2023-02-12T03:58:17.174Z,1026.2
2023-02-12T04:00:17.157Z,1026.1
2023-02-12T04:02:17.185Z,1026.1
2023-02-12T04:04:17.196Z,1026
2023-02-12T04:06:17.110Z,1026
2023-02-12T04:08:17.129Z,1026
2023-02-12T04:10:17.151Z,1025.9
2023-02-12T04:12:17.191Z,1025.8
2023-02-12T04:14:17.106Z,1025.7
2023-02-12T04:16:17.133Z,1025.7
2023-02-12T04:18:17.128Z,1025.6
2023-02-12T04:20:17.127Z,1025.6
2023-02-12T04:22:17.103Z,1025.4
2023-02-12T04:24:17.108Z,1025.3
2023-02-12T04:26:17.144Z,1025.3
2023-02-12T04:28:17.105Z,1025.3
2023-02-12T04:30:17.091Z,1025.3
2023-02-12T04:32:17.120Z,1025.2
2023-02-12T04:34:17.088Z,1025.2
2023-02-12T04:36:17.073Z,1025.2
2023-02-12T04:38:17.092Z,1025.3
2023-02-12T04:40:17.064Z,1025.3
2023-02-12T04:42:17.220Z,1025.2
2023-02-12T04:44:17.108Z,1025.2
2023-02-12T04:46:17.199Z,1025.2
2023-02-12T04:48:17.178Z,1025.2
2023-02-12T04:50:17.065Z,1025.2
2023-02-12T04:52:17.103Z,1025.2
2023-02-12T04:54:17.080Z,1025
2023-02-12T04:56:17.066Z,1024.9
2023-02-12T04:58:17.111Z,1024.8
2023-02-12T05:00:17.053Z,1024.7
2023-02-12T05:02:17.074Z,1024.7
2023-02-12T05:04:17.074Z,1024.6
2023-02-12T05:06:17.131Z,1024.7
2023-02-12T05:08:17.073Z,1024.8
2023-02-12T05:10:17.092Z,1024.8
2023-02-12T05:12:17.049Z,1024.8
2023-02-12T05:14:17.104Z,1024.7
2023-02-12T05:16:17.122Z,1024.7
2023-02-12T05:18:17.049Z,1024.6
2023-02-12T05:20:17.048Z,1024.5
2023-02-12T05:22:17.042Z,1024.4
2023-02-12T05:24:17.055Z,1024.4
2023-02-12T05:26:17.009Z,1024.5
2023-02-12T05:28:17.049Z,1024.5
2023-02-12T05:30:17.040Z,1024.5
2023-02-12T05:32:17.081Z,1024.4
2023-02-12T05:34:17.033Z,1024.3
2023-02-12T05:36:17.011Z,1024.2
2023-02-12T05:38:17.937Z,1024
2023-02-12T05:40:17.002Z,1023.9
2023-02-12T05:42:17.008Z,1023.8
2023-02-12T05:44:17.034Z,1023.7
2023-02-12T05:46:17.042Z,1023.7
2023-02-12T05:48:16.977Z,1023.7
2023-02-12T05:50:17.024Z,1023.7
2023-02-12T05:52:17.010Z,1023.7
2023-02-12T05:54:16.987Z,1023.7
2023-02-12T05:56:17.010Z,1023.6
2023-02-12T05:58:17.006Z,1023.5
2023-02-12T06:00:19.899Z,1023.5
2023-02-12T06:02:17.053Z,1023.6
2023-02-12T06:04:17.066Z,1023.5
2023-02-12T06:06:16.961Z,1023.5
2023-02-12T06:08:16.983Z,1023.4
2023-02-12T06:10:16.968Z,1023.5
2023-02-12T06:12:16.981Z,1023.5
2023-02-12T06:14:16.992Z,1023.4
2023-02-12T06:16:17.024Z,1023.4
2023-02-12T06:18:16.956Z,1023.3
2023-02-12T06:20:16.949Z,1023.1
2023-02-12T06:22:16.945Z,1023
2023-02-12T06:24:16.953Z,1022.9
2023-02-12T06:26:16.999Z,1022.9
2023-02-12T06:28:17.003Z,1023
2023-02-12T06:30:17.011Z,1023.1
2023-02-12T06:32:17.007Z,1023.1
2023-02-12T06:34:16.966Z,1023.2
2023-02-12T06:36:16.961Z,1023.1
2023-02-12T06:38:16.936Z,1023.1
2023-02-12T06:40:16.916Z,1023.1
2023-02-12T06:42:16.969Z,1023
2023-02-12T06:44:16.975Z,1023.1
2023-02-12T06:46:18.239Z,1023.1
2023-02-12T06:48:17.072Z,1023.1
2023-02-12T06:50:16.952Z,1023.2
2023-02-12T06:52:16.912Z,1023.2
2023-02-12T06:54:16.932Z,1023.3
2023-02-12T06:56:16.932Z,1023.3
2023-02-12T06:58:16.902Z,1023.3
2023-02-12T07:00:16.919Z,1023.3
2023-02-12T07:02:16.892Z,1023.3
2023-02-12T07:04:16.969Z,1023.3
2023-02-12T07:06:16.932Z,1023.4
2023-02-12T07:08:16.890Z,1023.4
2023-02-12T07:10:16.906Z,1023.4
2023-02-12T07:12:16.924Z,1023.4
2023-02-12T07:14:16.914Z,1023.4
2023-02-12T07:16:16.994Z,1023.4
2023-02-12T07:18:16.890Z,1023.3
2023-02-12T07:20:16.912Z,1023.2
2023-02-12T07:22:16.874Z,1023.2
2023-02-12T07:24:16.891Z,1023.2
2023-02-12T07:26:16.904Z,1023.2
2023-02-12T07:28:16.976Z,1023.1
2023-02-12T07:30:16.906Z,1023.1
2023-02-12T07:32:16.953Z,1023
2023-02-12T07:34:16.882Z,1022.9
2023-02-12T07:36:16.900Z,1022.9
2023-02-12T07:38:16.869Z,1022.8
2023-02-12T07:40:16.852Z,1022.8
2023-02-12T07:42:16.882Z,1022.6
2023-02-12T07:44:16.846Z,1022.6
2023-02-12T07:46:16.939Z,1022.5
2023-02-12T07:48:16.880Z,1022.5
2023-02-12T07:50:16.914Z,1022.5
2023-02-12T07:52:16.852Z,1022.4
2023-02-12T07:54:16.872Z,1022.3
2023-02-12T07:56:16.866Z,1022.3
2023-02-12T07:58:16.833Z,1022.2
2023-02-12T08:00:16.869Z,1022.1
2023-02-12T08:02:16.854Z,1022.1
2023-02-12T08:04:16.918Z,1022
2023-02-12T08:06:16.833Z,1021.9
2023-02-12T08:08:16.834Z,1021.9
2023-02-12T08:10:16.883Z,1021.9
2023-02-12T08:12:16.821Z,1021.9
2023-02-12T08:14:16.801Z,1021.9
2023-02-12T08:16:16.879Z,1021.8
2023-02-12T08:18:16.802Z,1021.8
2023-02-12T08:20:16.796Z,1021.8
2023-02-12T08:22:16.855Z,1021.8
2023-02-12T08:24:16.788Z,1021.8
2023-02-12T08:26:16.818Z,1021.7
2023-02-12T08:28:16.884Z,1021.7
2023-02-12T08:30:16.813Z,1021.6
2023-02-12T08:32:16.868Z,1021.6
2023-02-12T08:34:16.848Z,1021.6
2023-02-12T08:36:16.821Z,1021.6
2023-02-12T08:38:16.814Z,1021.6
2023-02-12T08:40:16.777Z,1021.6
2023-02-12T08:42:16.795Z,1021.6
2023-02-12T08:44:16.840Z,1021.6
2023-02-12T08:46:16.902Z,1021.5
2023-02-12T08:48:16.808Z,1021.5
2023-02-12T08:50:16.789Z,1021.5
2023-02-12T08:52:16.797Z,1021.5
2023-02-12T08:54:16.809Z,1021.5
2023-02-12T08:56:16.804Z,1021.6
2023-02-12T08:58:16.785Z,1021.6
2023-02-12T09:00:16.840Z,1021.6
2023-02-12T09:02:16.929Z,1021.5
2023-02-12T09:04:16.747Z,1021.6
2023-02-12T09:06:16.825Z,1021.6
2023-02-12T09:08:16.756Z,1021.6
2023-02-12T09:10:16.740Z,1021.6
2023-02-12T09:12:18.023Z,1021.6
2023-02-12T09:14:16.802Z,1021.5
2023-02-12T09:16:16.829Z,1021.4
2023-02-12T09:18:16.748Z,1021.3
2023-02-12T09:20:16.725Z,1021.3
2023-02-12T09:22:16.817Z,1021.2
2023-02-12T09:24:16.719Z,1021.2
2023-02-12T09:26:16.731Z,1021.2
2023-02-12T09:28:16.781Z,1021.2
2023-02-12T09:30:16.711Z,1021.2
2023-02-12T09:32:16.799Z,1021.2
2023-02-12T09:34:16.739Z,1021.2
2023-02-12T09:36:16.708Z,1021.1
2023-02-12T09:38:16.712Z,1021.1
2023-02-12T09:40:16.700Z,1020.9
2023-02-12T09:42:16.713Z,1020.9
2023-02-12T09:44:16.709Z,1020.8
2023-02-12T09:46:16.736Z,1020.8
2023-02-12T09:48:16.701Z,1020.8
2023-02-12T09:50:16.694Z,1020.8
2023-02-12T09:52:16.719Z,1020.9
2023-02-12T09:54:18.139Z,1020.8
2023-02-12T09:56:16.717Z,1020.6
2023-02-12T09:58:16.724Z,1020.3
2023-02-12T10:00:16.838Z,1020
2023-02-12T10:02:16.729Z,1019.8
2023-02-12T10:04:16.793Z,1019.7
2023-02-12T10:06:16.779Z,1019.8
2023-02-12T10:08:16.749Z,1019.8
2023-02-12T10:10:16.797Z,1019.7
2023-02-12T10:12:16.730Z,1019.7
2023-02-12T10:14:16.693Z,1019.8
2023-02-12T10:16:16.841Z,1019.9
2023-02-12T10:18:16.703Z,1019.7
2023-02-12T10:20:16.686Z,1019.4
2023-02-12T10:22:16.711Z,1019.3
2023-02-12T10:24:16.761Z,1019.3
2023-02-12T10:26:16.678Z,1019.2
2023-02-12T10:28:16.756Z,1019.1
2023-02-12T10:30:16.651Z,1019.1
2023-02-12T10:32:16.680Z,1019.1
2023-02-12T10:34:16.665Z,1019.1
2023-02-12T10:36:16.659Z,1019.1
2023-02-12T10:38:16.721Z,1019.2
2023-02-12T10:40:16.668Z,1019.3
2023-02-12T10:42:16.657Z,1019.4
2023-02-12T10:44:16.694Z,1019.5
2023-02-12T10:46:16.952Z,1019.4
2023-02-12T10:48:17.066Z,1019.3
2023-02-12T10:50:16.668Z,1019.3
2023-02-12T10:52:16.645Z,1019.3
2023-02-12T10:54:16.643Z,1019.4
2023-02-12T10:56:16.612Z,1019.5
2023-02-12T10:58:16.635Z,1019.5
2023-02-12T11:00:16.698Z,1019.4
2023-02-12T11:02:16.654Z,1019.2
2023-02-12T11:04:16.656Z,1018.8
2023-02-12T11:06:17.908Z,1018.6
2023-02-12T11:08:16.640Z,1018.7
2023-02-12T11:10:16.644Z,1018.7
2023-02-12T11:12:16.653Z,1018.7
2023-02-12T11:14:16.912Z,1018.6
2023-02-12T11:16:18.034Z,1018.6
2023-02-12T11:18:16.606Z,1018.5
2023-02-12T11:20:16.619Z,1018.5
2023-02-12T11:22:16.625Z,1018.6
2023-02-12T11:24:16.643Z,1018.5
2023-02-12T11:26:16.655Z,1018.4
2023-02-12T11:28:16.770Z,1018.4
2023-02-12T11:30:16.637Z,1018.3
2023-02-12T11:32:16.644Z,1018.3
2023-02-12T11:34:16.562Z,1018.2
2023-02-12T11:36:16.544Z,1018.1
2023-02-12T11:38:16.540Z,1018
2023-02-12T11:40:16.548Z,1018
2023-02-12T11:42:16.804Z,1018
2023-02-12T11:44:16.558Z,1017.9
2023-02-12T11:46:16.644Z,1017.9
2023-02-12T11:48:16.596Z,1017.8
2023-02-12T11:50:16.558Z,1017.7
2023-02-12T11:52:16.541Z,1017.7
2023-02-12T11:54:16.530Z,1017.7
2023-02-12T11:56:16.592Z,1017.6
2023-02-12T11:58:16.535Z,1017.6
2023-02-12T12:00:16.537Z,1017.6
2023-02-12T12:02:16.564Z,1017.6
2023-02-12T12:04:16.531Z,1017.7
2023-02-12T12:06:16.546Z,1017.7
2023-02-12T12:08:16.860Z,1017.6
2023-02-12T12:10:16.533Z,1017.4
2023-02-12T12:12:16.609Z,1017.4
2023-02-12T12:14:16.513Z,1017.4
2023-02-12T12:16:35.412Z,1017.4
2023-02-12T12:18:18.013Z,1017.4
2023-02-12T12:20:16.572Z,1017.3
2023-02-12T12:22:16.718Z,1017.2
2023-02-12T12:24:16.498Z,1017.2
2023-02-12T12:25:21.254Z,1017.2
2023-02-12T12:26:18.590Z,1017.1
2023-02-12T12:27:27.434Z,1017.1
2023-02-12T12:28:26.098Z,1017
2023-02-12T12:30:16.809Z,1017
2023-02-12T12:31:15.343Z,1017
2023-02-12T12:32:17.737Z,1017.2
2023-02-12T12:33:37.460Z,1017.2
2023-02-12T12:34:21.207Z,1017.1
2023-02-12T12:52:51.050Z,1016.9
2023-02-12T12:54:29.693Z,1016.9
2023-02-12T12:56:29.631Z,1016.8
2023-02-12T12:58:29.586Z,1016.9
2023-02-12T13:00:29.744Z,1017
2023-02-12T13:02:29.661Z,1017.1
2023-02-12T13:04:29.842Z,1017.2
2023-02-12T13:06:29.796Z,1017.2
2023-02-12T13:08:30.292Z,1017
2023-02-12T13:10:29.943Z,1016.9
2023-02-12T13:12:32.165Z,1016.9
2023-02-12T13:14:29.620Z,1017
2023-02-12T13:16:29.725Z,1016.9
2023-02-12T13:18:29.603Z,1016.8
2023-02-12T13:20:29.672Z,1016.9
2023-02-12T13:22:30.739Z,1016.9
2023-02-12T13:24:52.238Z,1016.8
2023-02-12T13:26:29.744Z,1016.7
2023-02-12T13:27:51.218Z,1016.6
2023-02-12T13:29:20.530Z,1016.4
2023-02-12T13:31:32.339Z,1016.2
2023-02-12T13:33:19.383Z,1016.1
2023-02-12T13:35:20.865Z,1016
2023-02-12T13:37:19.426Z,1016
2023-02-12T13:39:19.426Z,1016
2023-02-12T13:41:20.080Z,1015.9
2023-02-12T13:43:21.338Z,1015.8
2023-02-12T13:45:26.978Z,1015.8
2023-02-12T13:47:20.712Z,1015.5
2023-02-12T13:49:20.761Z,1015.3
2023-02-12T13:51:20.630Z,1015.3
2023-02-12T13:53:19.390Z,1015.3
2023-02-12T13:55:19.611Z,1015.3
2023-02-12T13:57:19.602Z,1015.1
2023-02-12T13:59:19.444Z,1014.9
2023-02-12T14:01:19.499Z,1014.9
2023-02-12T14:03:19.432Z,1014.8
2023-02-12T14:05:19.474Z,1014.8
2023-02-12T14:07:19.468Z,1014.6
2023-02-12T14:09:19.347Z,1014.4
2023-02-12T14:11:22.009Z,1014.4
2023-02-12T14:13:21.112Z,1014.4
2023-02-12T14:15:19.486Z,1014.4
2023-02-12T14:17:19.423Z,1014.4
2023-02-12T14:19:19.630Z,1014.4
2023-02-12T14:21:20.679Z,1014.3
2023-02-12T14:23:19.386Z,1014.3
2023-02-12T14:25:19.417Z,1014.3
2023-02-12T14:27:19.347Z,1014.3
2023-02-12T14:29:19.388Z,1014.2
2023-02-12T14:31:19.641Z,1014.1
2023-02-12T14:33:19.349Z,1014.2
2023-02-12T14:35:19.319Z,1014.1
2023-02-12T14:37:19.492Z,1014.1
2023-02-12T14:39:19.436Z,1014.2
2023-02-12T14:41:19.365Z,1014.1
2023-02-12T14:43:19.402Z,1014.1
2023-02-12T14:45:19.428Z,1013.9
2023-02-12T14:47:19.380Z,1013.7
2023-02-12T14:49:19.342Z,1013.7
2023-02-12T14:51:19.358Z,1013.7
2023-02-12T14:53:20.553Z,1013.7
2023-02-12T14:55:24.259Z,1013.6
2023-02-12T14:57:26.931Z,1013.6
2023-02-12T14:59:27.041Z,1013.5
2023-02-12T15:01:31.844Z,1013.6
2023-02-12T15:03:19.308Z,1013.5
2023-02-12T15:05:19.504Z,1013.3
2023-02-12T15:07:19.350Z,1013.2
2023-02-12T15:09:21.945Z,1013
2023-02-12T15:11:20.268Z,1013
2023-02-12T15:13:19.440Z,1013.2
2023-02-12T15:14:42.540Z,1013.2
2023-02-12T15:15:20.678Z,1013
2023-02-12T15:17:13.102Z,1013
2023-02-12T15:17:19.297Z,1013.3
2023-02-12T15:19:25.410Z,1013.2
2023-02-12T15:21:20.536Z,1013.3
2023-02-12T15:23:19.261Z,1013.3
2023-02-12T15:25:20.537Z,1013.3
2023-02-12T15:27:19.279Z,1013.3
2023-02-12T15:29:19.371Z,1013.4
2023-02-12T15:31:19.724Z,1013.5
2023-02-12T15:33:19.382Z,1013.6
2023-02-12T15:35:19.428Z,1013.7
2023-02-12T15:37:19.477Z,1013.7
2023-02-12T15:39:19.402Z,1013.8
2023-02-12T15:41:19.254Z,1013.8
2023-02-12T15:43:19.354Z,1013.7
2023-02-12T15:45:19.270Z,1013.4
2023-02-12T15:47:19.249Z,1013.2
2023-02-12T15:49:23.542Z,1012.9
2023-02-12T15:51:19.204Z,1012.6
2023-02-12T15:53:19.335Z,1012.3
2023-02-12T15:55:20.414Z,1011.8
2023-02-12T15:57:20.489Z,1011.3
2023-02-12T15:59:19.402Z,1011.6
2023-02-12T16:01:19.307Z,1011.9
2023-02-12T16:03:21.760Z,1011.6
2023-02-12T16:05:19.288Z,1011.4
2023-02-12T16:07:19.252Z,1011.3
2023-02-12T16:09:19.418Z,1011
2023-02-12T16:11:19.338Z,1010.9
2023-02-12T16:13:21.866Z,1010.8
2023-02-12T16:15:19.215Z,1010.8
2023-02-12T16:17:19.277Z,1010.7
2023-02-12T16:19:19.269Z,1010.9
2023-02-12T16:21:19.181Z,1010.8
2023-02-12T16:23:19.287Z,1010.9
2023-02-12T16:25:23.350Z,1010.9
2023-02-12T16:27:22.954Z,1010.7
2023-02-12T16:29:19.224Z,1010.5
2023-02-12T16:30:16.154Z,1010.5
2023-02-12T16:31:19.450Z,1010.4
2023-02-12T16:33:19.195Z,1010.3
2023-02-12T16:35:19.594Z,1010.3
2023-02-12T16:37:19.232Z,1010.3
2023-02-12T16:39:19.286Z,1010.3
2023-02-12T16:41:19.290Z,1010.3
2023-02-12T16:43:20.372Z,1010.2
2023-02-12T16:45:19.307Z,1010.1
2023-02-12T16:47:19.200Z,1009.9
2023-02-12T16:49:19.338Z,1009.9
2023-02-12T16:50:29.566Z,1009.9
2023-02-12T16:51:19.232Z,1009.8
2023-02-12T16:53:19.170Z,1009.8
2023-02-12T16:55:19.214Z,1009.8
2023-02-12T16:57:19.167Z,1009.9
2023-02-12T16:59:19.177Z,1010.1
2023-02-12T17:01:19.396Z,1010.1
2023-02-12T17:03:19.335Z,1009.6
2023-02-12T17:05:19.227Z,1009.6
2023-02-12T17:07:19.169Z,1009.7
2023-02-12T17:09:19.204Z,1009.8
2023-02-12T17:11:19.180Z,1009.9
2023-02-12T17:13:19.271Z,1009.8
2023-02-12T17:15:19.191Z,1009.7
2023-02-12T17:17:19.445Z,1009.6
2023-02-12T17:19:19.090Z,1009.6
2023-02-12T17:21:20.585Z,1009.4
2023-02-12T17:23:19.427Z,1009.4
2023-02-12T17:25:19.175Z,1009.3
2023-02-12T17:27:19.176Z,1009.1
2023-02-12T17:29:19.126Z,1009.2
2023-02-12T17:31:19.287Z,1009.2
2023-02-12T17:33:20.387Z,1009
2023-02-12T17:35:19.208Z,1009
2023-02-12T17:37:19.128Z,1008.8
2023-02-12T17:39:19.086Z,1008.7
2023-02-12T17:41:19.185Z,1008.7
2023-02-12T17:43:19.087Z,1008.8
2023-02-12T17:45:19.121Z,1008.9
2023-02-12T17:47:19.050Z,1008.8
2023-02-12T17:49:19.097Z,1008.8
2023-02-12T17:51:19.161Z,1008.7
2023-02-12T17:53:19.102Z,1008.6
2023-02-12T17:55:19.105Z,1008.5
2023-02-12T17:57:19.176Z,1008.4
2023-02-12T17:59:19.114Z,1008.3
2023-02-12T18:01:19.205Z,1008.3
2023-02-12T18:03:19.119Z,1008
2023-02-12T18:05:19.154Z,1007.9
2023-02-12T18:07:19.255Z,1007.8
2023-02-12T18:09:21.702Z,1007.8
2023-02-12T18:11:19.101Z,1007.9
2023-02-12T18:13:19.116Z,1007.6
2023-02-12T18:15:19.300Z,1007.6
2023-02-12T18:17:16.078Z,1007.6
2023-02-12T18:19:24.810Z,1007.4
2023-02-12T18:21:13.402Z,1007.4
2023-02-12T18:23:19.170Z,1007.2
2023-02-12T18:25:41.044Z,1007.1
2023-02-12T18:27:20.000Z,1006.9
2023-02-12T18:29:21.092Z,1006.8
2023-02-12T18:31:19.296Z,1006.6
2023-02-12T18:33:19.358Z,1006.6
2023-02-12T18:35:19.740Z,1006.7
2023-02-12T18:37:38.203Z,1006.6
2023-02-12T18:39:21.067Z,1006.4
2023-02-12T18:41:20.376Z,1006.7
2023-02-12T18:43:20.210Z,1006.8
2023-02-12T18:45:19.071Z,1006.8
2023-02-12T18:47:19.689Z,1006.8
2023-02-12T18:49:19.032Z,1006.7
2023-02-12T18:51:19.059Z,1006.4
2023-02-12T18:53:19.089Z,1006.5
2023-02-12T18:55:19.129Z,1006.6
2023-02-12T18:57:20.262Z,1006.7
2023-02-12T18:59:20.237Z,1006.5
2023-02-12T19:01:19.125Z,1006.6
2023-02-12T19:03:19.049Z,1006.4
2023-02-12T19:05:19.142Z,1006.1
2023-02-12T19:07:20.088Z,1006
2023-02-12T19:09:19.050Z,1005.9
2023-02-12T19:11:18.997Z,1005.8
2023-02-12T19:13:19.116Z,1005.6
2023-02-12T19:15:19.247Z,1005.7
2023-02-12T19:17:19.050Z,1005.5
2023-02-12T19:19:20.155Z,1005.7
2023-02-12T19:21:19.083Z,1005.6
2023-02-12T19:23:19.255Z,1005.3
2023-02-12T19:25:19.018Z,1005.4
2023-02-12T19:27:19.041Z,1005.4
2023-02-12T19:29:20.368Z,1005.4
2023-02-12T19:31:19.229Z,1005.3
2023-02-12T19:33:19.066Z,1005.2
2023-02-12T19:35:19.002Z,1005
2023-02-12T19:37:20.299Z,1004.8
2023-02-12T19:39:20.366Z,1004.6
2023-02-12T19:41:19.033Z,1004.5
2023-02-12T19:43:20.213Z,1004.3
2023-02-12T19:45:19.158Z,1004.2
2023-02-12T19:47:20.201Z,1004.2
2023-02-12T19:49:19.518Z,1004.3
2023-02-12T19:51:21.091Z,1004.2
2023-02-12T19:53:18.955Z,1004
2023-02-12T19:54:53.362Z,1004
2023-02-12T19:55:19.029Z,1004
2023-02-12T19:57:19.041Z,1004
2023-02-12T19:59:29.553Z,1003.9
2023-02-12T20:01:19.037Z,1003.9
2023-02-12T20:03:20.155Z,1003.8
2023-02-12T20:04:07.476Z,1003.8
2023-02-12T20:05:29.235Z,1003.7
2023-02-12T20:07:19.143Z,1003.7
2023-02-12T20:09:21.469Z,1003.8
2023-02-12T20:11:19.022Z,1003.7
2023-02-12T20:13:29.188Z,1003.5
2023-02-12T20:14:38.590Z,1003.5
2023-02-12T20:15:33.362Z,1003.4
2023-02-12T20:17:24.976Z,1003.3
2023-02-12T20:19:19.173Z,1003.2
2023-02-12T20:21:19.004Z,1003.1
2023-02-12T20:23:18.946Z,1003.3
2023-02-12T20:25:18.852Z,1003
2023-02-12T20:27:20.235Z,1002.9
2023-02-12T20:29:18.973Z,1002.8
2023-02-12T20:31:29.742Z,1002.9
2023-02-12T20:33:19.950Z,1002.7
2023-02-12T20:35:18.968Z,1002.6
2023-02-12T20:37:24.586Z,1002.6
2023-02-12T20:39:19.235Z,1002.5
2023-02-12T20:41:18.963Z,1002.6
2023-02-12T20:43:23.078Z,1002.6
2023-02-12T20:45:20.416Z,1002.5
2023-02-12T20:47:18.889Z,1002.5
2023-02-12T20:49:18.913Z,1002.5
2023-02-12T20:51:20.348Z,1002.5
2023-02-12T20:53:18.903Z,1002.5
2023-02-12T20:55:18.876Z,1002.4
2023-02-12T20:57:22.949Z,1002.3
2023-02-12T20:59:21.749Z,1002.3
2023-02-12T21:01:18.961Z,1002.2
2023-02-12T21:03:41.559Z,1002.3
2023-02-12T21:05:18.894Z,1002.2
2023-02-12T21:07:18.904Z,1002.2
2023-02-12T21:09:21.456Z,1002.1
2023-02-12T21:11:27.973Z,1002.1
2023-02-12T21:13:18.971Z,1002.1
2023-02-12T21:15:18.918Z,1002
2023-02-12T21:17:18.936Z,1002
2023-02-12T21:19:18.964Z,1001.9
2023-02-12T21:21:18.885Z,1001.9
2023-02-12T21:23:18.941Z,1001.9
2023-02-12T21:25:18.777Z,1001.9
2023-02-12T21:27:18.771Z,1001.8
2023-02-12T21:29:18.991Z,1001.7
2023-02-12T21:31:20.041Z,1001.6
2023-02-12T21:33:21.332Z,1001.7
2023-02-12T21:35:18.899Z,1001.7
2023-02-12T21:37:18.861Z,1001.7
2023-02-12T21:39:18.895Z,1001.7
2023-02-12T21:41:26.784Z,1001.5
2023-02-12T21:43:18.867Z,1001.5
2023-02-12T21:45:19.009Z,1001.5
2023-02-12T21:47:18.828Z,1001.4
2023-02-12T21:49:18.913Z,1001.4
2023-02-12T21:51:18.875Z,1001.3
2023-02-12T21:53:18.914Z,1001.3
2023-02-12T21:55:18.821Z,1001.3
2023-02-12T21:57:18.797Z,1001.3
2023-02-12T21:59:18.827Z,1001.3
2023-02-12T22:01:18.912Z,1001.3
2023-02-12T22:03:18.816Z,1001.3
2023-02-12T22:05:18.903Z,1001.3
2023-02-12T22:07:20.995Z,1001.2
2023-02-12T22:09:18.793Z,1001.2
2023-02-12T22:11:19.002Z,1001.3
2023-02-12T22:13:18.772Z,1001.3
2023-02-12T22:15:18.758Z,1001.3
2023-02-12T22:17:18.757Z,1001.3
2023-02-12T22:19:18.797Z,1001.3
2023-02-12T22:21:18.821Z,1001.3
2023-02-12T22:23:18.869Z,1001.4
2023-02-12T22:25:18.734Z,1001.5
2023-02-12T22:27:20.109Z,1001.7
2023-02-12T22:29:18.874Z,1001.9
2023-02-12T22:31:19.937Z,1002
2023-02-12T22:33:18.721Z,1001.9
2023-02-12T22:35:18.767Z,1002.1
2023-02-12T22:37:18.772Z,1002.1
2023-02-12T22:39:20.010Z,1002.1
2023-02-12T22:41:18.717Z,1002
2023-02-12T22:43:18.711Z,1001.8
2023-02-12T22:45:20.052Z,1001.8
2023-02-12T22:47:18.714Z,1001.7
2023-02-12T22:49:20.159Z,1001.7
2023-02-12T22:51:18.821Z,1001.7
2023-02-12T22:53:18.851Z,1001.7
2023-02-12T22:55:21.257Z,1001.5
2023-02-12T22:57:18.679Z,1001.5
2023-02-12T22:59:18.661Z,1001.5
2023-02-12T23:01:18.788Z,1001.5
2023-02-12T23:03:18.793Z,1001.5
2023-02-12T23:05:18.726Z,1001.4
2023-02-12T23:07:18.701Z,1001.4
2023-02-12T23:09:18.709Z,1001.4
2023-02-12T23:11:18.617Z,1001.4
2023-02-12T23:13:29.143Z,1001.4
2023-02-12T23:15:18.637Z,1001.3
2023-02-12T23:17:18.630Z,1001.4
2023-02-12T23:19:18.709Z,1001.5
2023-02-12T23:21:18.626Z,1001.5
2023-02-12T23:23:18.632Z,1001.5
2023-02-12T23:25:18.724Z,1001.4
2023-02-12T23:27:18.681Z,1001.4
2023-02-12T23:29:19.866Z,1001.4
2023-02-12T23:31:18.857Z,1001.4
2023-02-12T23:33:18.666Z,1001.4
2023-02-12T23:35:30.896Z,1001.5
2023-02-12T23:37:41.270Z,1001.4
2023-02-12T23:39:18.613Z,1001.3
2023-02-12T23:41:18.608Z,1001.3
2023-02-12T23:43:18.653Z,1001.3
2023-02-12T23:45:18.659Z,1001.4
2023-02-12T23:47:18.622Z,1001.4
2023-02-12T23:49:18.630Z,1001.4
2023-02-12T23:51:18.662Z,1001.3
2023-02-12T23:53:18.631Z,1001.3
2023-02-12T23:55:18.653Z,1001.3
2023-02-12T23:57:18.625Z,1001.3
2023-02-12T23:59:18.673Z,1001.6
